sensor_id;sensor_type;location;lat;lon;timestamp;pressure;altitude;pressure_sealevel;temperature;humidity
40650;BME280;26342;42.826;23.992;2023-04-28T00:01:50;95617.16;;;4.80;100.00
40650;BME280;26342;42.826;23.992;2023-04-28T00:04:16;95620.59;;;4.48;100.00
40650;BME280;26342;42.826;23.992;2023-04-28T00:06:42;95617.66;;;4.32;100.00
40650;BME280;26342;42.826;23.992;2023-04-28T00:09:08;95627.22;;;4.26;100.00
40650;BME280;26342;42.826;23.992;2023-04-28T00:11:37;95618.13;;;4.22;100.00
40650;BME280;26342;42.826;23.992;2023-04-28T00:14:17;95626.13;;;4.02;100.00
40650;BME280;26342;42.826;23.992;2023-04-28T00:16:47;95620.88;;;3.96;100.00
40650;BME280;26342;42.826;23.992;2023-04-28T00:19:12;95626.41;;;3.87;100.00
40650;BME280;26342;42.826;23.992;2023-04-28T00:21:46;95617.91;;;3.72;100.00
40650;BME280;26342;42.826;23.992;2023-04-28T00:24:15;95614.66;;;3.70;100.00
40650;BME280;26342;42.826;23.992;2023-04-28T00:26:41;95621.16;;;3.68;100.00
40650;BME280;26342;42.826;23.992;2023-04-28T00:29:06;95616.88;;;3.80;100.00
40650;BME280;26342;42.826;23.992;2023-04-28T00:31:32;95626.56;;;3.92;100.00
40650;BME280;26342;42.826;23.992;2023-04-28T00:33:59;95620.09;;;3.95;100.00
40650;BME280;26342;42.826;23.992;2023-04-28T00:36:24;95619.41;;;4.06;100.00
40650;BME280;26342;42.826;23.992;2023-04-28T00:38:50;95612.53;;;3.99;100.00
40650;BME280;26342;42.826;23.992;2023-04-28T00:41:16;95626.66;;;4.17;100.00
40650;BME280;26342;42.826;23.992;2023-04-28T00:43:47;95620.19;;;4.13;100.00
40650;BME280;26342;42.826;23.992;2023-04-28T00:46:21;95632.16;;;4.16;100.00
40650;BME280;26342;42.826;23.992;2023-04-28T00:48:48;95615.06;;;4.18;100.00
40650;BME280;26342;42.826;23.992;2023-04-28T00:51:16;95628.47;;;4.24;100.00
40650;BME280;26342;42.826;23.992;2023-04-28T00:53:55;95634.78;;;4.23;100.00
40650;BME280;26342;42.826;23.992;2023-04-28T00:56:32;95632.56;;;4.19;100.00
40650;BME280;26342;42.826;23.992;2023-04-28T00:58:58;95629.16;;;4.12;100.00
40650;BME280;26342;42.826;23.992;2023-04-28T01:01:23;95628.75;;;4.09;100.00
40650;BME280;26342;42.826;23.992;2023-04-28T01:03:51;95635.44;;;4.11;100.00
40650;BME280;26342;42.826;23.992;2023-04-28T01:06:23;95623.88;;;4.12;100.00
40650;BME280;26342;42.826;23.992;2023-04-28T01:08:49;95632.16;;;4.16;100.00
40650;BME280;26342;42.826;23.992;2023-04-28T01:11:21;95630.31;;;4.16;100.00
40650;BME280;26342;42.826;23.992;2023-04-28T01:13:49;95630.31;;;4.16;100.00
40650;BME280;26342;42.826;23.992;2023-04-28T01:16:14;95634.66;;;4.11;100.00
40650;BME280;26342;42.826;23.992;2023-04-28T01:18:45;95630.34;;;4.10;100.00
40650;BME280;26342;42.826;23.992;2023-04-28T01:21:12;95628.34;;;4.12;100.00
40650;BME280;26342;42.826;23.992;2023-04-28T01:23:37;95624.66;;;4.13;100.00
40650;BME280;26342;42.826;23.992;2023-04-28T01:26:03;95629.38;;;4.11;100.00
40650;BME280;26342;42.826;23.992;2023-04-28T01:28:28;95627.72;;;4.10;100.00
40650;BME280;26342;42.826;23.992;2023-04-28T01:30:54;95628.56;;;4.04;100.00
40650;BME280;26342;42.826;23.992;2023-04-28T01:33:20;95605.69;;;3.84;100.00
40650;BME280;26342;42.826;23.992;2023-04-28T01:35:46;95628.19;;;3.87;100.00
40650;BME280;26342;42.826;23.992;2023-04-28T01:38:19;95624.00;;;3.79;100.00
40650;BME280;26342;42.826;23.992;2023-04-28T01:40:57;95629.44;;;3.78;100.00
40650;BME280;26342;42.826;23.992;2023-04-28T01:43:23;95629.66;;;3.76;100.00
40650;BME280;26342;42.826;23.992;2023-04-28T01:45:48;95632.50;;;3.81;100.00
40650;BME280;26342;42.826;23.992;2023-04-28T01:48:15;95631.28;;;3.84;100.00
40650;BME280;26342;42.826;23.992;2023-04-28T01:50:40;95621.38;;;3.73;100.00
40650;BME280;26342;42.826;23.992;2023-04-28T01:53:05;95632.31;;;3.70;100.00
40650;BME280;26342;42.826;23.992;2023-04-28T01:55:31;95635.78;;;3.70;100.00
40650;BME280;26342;42.826;23.992;2023-04-28T01:57:57;95639.22;;;3.77;100.00
40650;BME280;26342;42.826;23.992;2023-04-28T02:00:26;95636.78;;;3.76;100.00
40650;BME280;26342;42.826;23.992;2023-04-28T02:02:52;95643.09;;;3.75;100.00
40650;BME280;26342;42.826;23.992;2023-04-28T02:05:17;95641.47;;;3.67;100.00
40650;BME280;26342;42.826;23.992;2023-04-28T02:07:43;95642.88;;;3.70;100.00
40650;BME280;26342;42.826;23.992;2023-04-28T02:10:08;95655.91;;;3.64;100.00
40650;BME280;26342;42.826;23.992;2023-04-28T02:12:47;95653.88;;;3.53;100.00
40650;BME280;26342;42.826;23.992;2023-04-28T02:15:20;95647.63;;;3.48;100.00
40650;BME280;26342;42.826;23.992;2023-04-28T02:17:46;95661.19;;;3.51;100.00
40650;BME280;26342;42.826;23.992;2023-04-28T02:20:12;95661.63;;;3.48;100.00
40650;BME280;26342;42.826;23.992;2023-04-28T02:22:39;95655.53;;;3.41;100.00
40650;BME280;26342;42.826;23.992;2023-04-28T02:25:04;95661.63;;;3.42;100.00
40650;BME280;26342;42.826;23.992;2023-04-28T02:27:30;95664.25;;;3.42;100.00
40650;BME280;26342;42.826;23.992;2023-04-28T02:29:56;95663.25;;;3.36;100.00
40650;BME280;26342;42.826;23.992;2023-04-28T02:32:21;95661.19;;;3.31;100.00
40650;BME280;26342;42.826;23.992;2023-04-28T02:34:52;95659.38;;;3.05;100.00
40650;BME280;26342;42.826;23.992;2023-04-28T02:37:17;95670.75;;;3.06;100.00
40650;BME280;26342;42.826;23.992;2023-04-28T02:39:43;95663.44;;;2.95;100.00
40650;BME280;26342;42.826;23.992;2023-04-28T02:42:08;95669.09;;;2.72;100.00
40650;BME280;26342;42.826;23.992;2023-04-28T02:44:34;95668.88;;;2.67;100.00
40650;BME280;26342;42.826;23.992;2023-04-28T02:47:02;95678.84;;;2.71;100.00
40650;BME280;26342;42.826;23.992;2023-04-28T02:49:27;95671.53;;;2.73;100.00
40650;BME280;26342;42.826;23.992;2023-04-28T02:51:53;95671.97;;;2.77;100.00
40650;BME280;26342;42.826;23.992;2023-04-28T02:54:18;95672.75;;;2.77;100.00
40650;BME280;26342;42.826;23.992;2023-04-28T02:57:02;95658.97;;;2.69;100.00
40650;BME280;26342;42.826;23.992;2023-04-28T02:59:37;95680.25;;;2.80;100.00
40650;BME280;26342;42.826;23.992;2023-04-28T03:02:03;95683.91;;;2.79;100.00
40650;BME280;26342;42.826;23.992;2023-04-28T03:04:28;95674.16;;;2.73;100.00
40650;BME280;26342;42.826;23.992;2023-04-28T03:06:54;95681.25;;;2.73;100.00
40650;BME280;26342;42.826;23.992;2023-04-28T03:09:25;95688.56;;;2.77;100.00
40650;BME280;26342;42.826;23.992;2023-04-28T03:11:53;95689.78;;;2.75;100.00
40650;BME280;26342;42.826;23.992;2023-04-28T03:14:19;95694.22;;;2.68;100.00
40650;BME280;26342;42.826;23.992;2023-04-28T03:16:46;95696.66;;;2.69;100.00
40650;BME280;26342;42.826;23.992;2023-04-28T03:19:12;95694.22;;;2.68;100.00
40650;BME280;26342;42.826;23.992;2023-04-28T03:21:39;95696.22;;;2.59;100.00
40650;BME280;26342;42.826;23.992;2023-04-28T03:24:05;95700.47;;;2.54;100.00
40650;BME280;26342;42.826;23.992;2023-04-28T03:26:31;95706.34;;;2.56;100.00
40650;BME280;26342;42.826;23.992;2023-04-28T03:28:58;95709.59;;;2.58;100.00
40650;BME280;26342;42.826;23.992;2023-04-28T03:31:24;95709.78;;;2.49;100.00
40650;BME280;26342;42.826;23.992;2023-04-28T03:33:51;95716.28;;;2.54;100.00
40650;BME280;26342;42.826;23.992;2023-04-28T03:36:19;95712.81;;;2.46;100.00
40650;BME280;26342;42.826;23.992;2023-04-28T03:38:45;95697.53;;;2.29;100.00
40650;BME280;26342;42.826;23.992;2023-04-28T03:41:12;95727.59;;;2.47;100.00
40650;BME280;26342;42.826;23.992;2023-04-28T03:43:38;95723.94;;;2.42;100.00
40650;BME280;26342;42.826;23.992;2023-04-28T03:46:04;95732.44;;;2.44;100.00
40650;BME280;26342;42.826;23.992;2023-04-28T03:48:30;95734.09;;;2.45;100.00
40650;BME280;26342;42.826;23.992;2023-04-28T03:50:56;95742.41;;;2.48;100.00
40650;BME280;26342;42.826;23.992;2023-04-28T03:53:22;95738.53;;;2.44;100.00
40650;BME280;26342;42.826;23.992;2023-04-28T03:55:49;95747.22;;;2.38;100.00
40650;BME280;26342;42.826;23.992;2023-04-28T03:58:16;95756.16;;;2.44;100.00
40650;BME280;26342;42.826;23.992;2023-04-28T04:00:41;95755.94;;;2.39;100.00
40650;BME280;26342;42.826;23.992;2023-04-28T04:03:07;95751.28;;;2.41;100.00
40650;BME280;26342;42.826;23.992;2023-04-28T04:05:33;95764.44;;;2.41;100.00
40650;BME280;26342;42.826;23.992;2023-04-28T04:07:59;95764.44;;;2.41;100.00
40650;BME280;26342;42.826;23.992;2023-04-28T04:10:25;95749.22;;;2.36;100.00
40650;BME280;26342;42.826;23.992;2023-04-28T04:12:50;95756.50;;;2.34;100.00
40650;BME280;26342;42.826;23.992;2023-04-28T04:15:15;95751.84;;;2.30;100.00
40650;BME280;26342;42.826;23.992;2023-04-28T04:17:42;95773.97;;;2.42;100.00
40650;BME280;26342;42.826;23.992;2023-04-28T04:20:07;95775.22;;;2.46;100.00
40650;BME280;26342;42.826;23.992;2023-04-28T04:22:34;95779.69;;;2.52;100.00
40650;BME280;26342;42.826;23.992;2023-04-28T04:25:00;95773.44;;;2.53;100.00
40650;BME280;26342;42.826;23.992;2023-04-28T04:27:26;95777.06;;;2.52;100.00
40650;BME280;26342;42.826;23.992;2023-04-28T04:29:52;95776.66;;;2.48;100.00
40650;BME280;26342;42.826;23.992;2023-04-28T04:32:17;95790.06;;;2.60;100.00
40650;BME280;26342;42.826;23.992;2023-04-28T04:34:44;95788.31;;;2.80;100.00
40650;BME280;26342;42.826;23.992;2023-04-28T04:37:10;95794.47;;;3.01;100.00
40650;BME280;26342;42.826;23.992;2023-04-28T04:39:36;95789.63;;;3.11;100.00
40650;BME280;26342;42.826;23.992;2023-04-28T04:42:02;95771.38;;;3.10;100.00
40650;BME280;26342;42.826;23.992;2023-04-28T04:44:28;95784.19;;;3.32;100.00
40650;BME280;26342;42.826;23.992;2023-04-28T04:46:54;95781.94;;;3.43;100.00
40650;BME280;26342;42.826;23.992;2023-04-28T04:49:20;95789.25;;;3.54;100.00
40650;BME280;26342;42.826;23.992;2023-04-28T04:51:45;95785.59;;;3.61;100.00
40650;BME280;26342;42.826;23.992;2023-04-28T04:54:11;95779.53;;;3.41;100.00
40650;BME280;26342;42.826;23.992;2023-04-28T04:56:37;95787.22;;;3.43;100.00
40650;BME280;26342;42.826;23.992;2023-04-28T04:59:03;95789.25;;;3.54;100.00
40650;BME280;26342;42.826;23.992;2023-04-28T05:01:31;95780.97;;;3.63;100.00
40650;BME280;26342;42.826;23.992;2023-04-28T05:03:56;95788.03;;;3.70;100.00
40650;BME280;26342;42.826;23.992;2023-04-28T05:06:21;95786.22;;;3.83;100.00
40650;BME280;26342;42.826;23.992;2023-04-28T05:08:47;95780.94;;;3.97;100.00
40650;BME280;26342;42.826;23.992;2023-04-28T05:11:12;95782.13;;;4.14;100.00
40650;BME280;26342;42.826;23.992;2023-04-28T05:13:38;95791.44;;;4.30;100.00
40650;BME280;26342;42.826;23.992;2023-04-28T05:16:05;95780.63;;;4.38;100.00
40650;BME280;26342;42.826;23.992;2023-04-28T05:18:30;95774.47;;;4.57;100.00
40650;BME280;26342;42.826;23.992;2023-04-28T05:20:57;95779.09;;;4.75;100.00
40650;BME280;26342;42.826;23.992;2023-04-28T05:23:23;95767.22;;;4.91;100.00
40650;BME280;26342;42.826;23.992;2023-04-28T05:25:49;95775.03;;;5.11;100.00
40650;BME280;26342;42.826;23.992;2023-04-28T05:28:14;95762.75;;;5.23;100.00
40650;BME280;26342;42.826;23.992;2023-04-28T05:30:40;95767.13;;;5.36;100.00
40650;BME280;26342;42.826;23.992;2023-04-28T05:33:07;95761.03;;;5.60;100.00
40650;BME280;26342;42.826;23.992;2023-04-28T05:35:32;95753.81;;;5.74;100.00
40650;BME280;26342;42.826;23.992;2023-04-28T05:37:58;95756.25;;;6.00;100.00
40650;BME280;26342;42.826;23.992;2023-04-28T05:40:23;95759.06;;;6.24;100.00
40650;BME280;26342;42.826;23.992;2023-04-28T05:42:53;95755.63;;;6.41;100.00
40650;BME280;26342;42.826;23.992;2023-04-28T05:45:19;95751.56;;;6.57;100.00
40650;BME280;26342;42.826;23.992;2023-04-28T05:47:45;95750.50;;;6.77;100.00
40650;BME280;26342;42.826;23.992;2023-04-28T05:50:13;95747.13;;;6.88;99.39
40650;BME280;26342;42.826;23.992;2023-04-28T05:52:38;95750.06;;;7.10;95.36
40650;BME280;26342;42.826;23.992;2023-04-28T05:55:04;95746.91;;;7.19;93.17
40650;BME280;26342;42.826;23.992;2023-04-28T05:57:30;95747.38;;;7.28;90.33
40650;BME280;26342;42.826;23.992;2023-04-28T05:59:56;95748.91;;;7.47;90.17
40650;BME280;26342;42.826;23.992;2023-04-28T06:02:22;95753.34;;;7.65;92.46
40650;BME280;26342;42.826;23.992;2023-04-28T06:04:48;95753.13;;;7.78;88.05
40650;BME280;26342;42.826;23.992;2023-04-28T06:07:14;95750.47;;;8.02;82.30
40650;BME280;26342;42.826;23.992;2023-04-28T06:09:39;95760.53;;;8.11;79.20
40650;BME280;26342;42.826;23.992;2023-04-28T06:12:08;95750.72;;;8.24;80.86
40650;BME280;26342;42.826;23.992;2023-04-28T06:14:35;95765.88;;;8.47;78.82
40650;BME280;26342;42.826;23.992;2023-04-28T06:17:03;95750.44;;;8.72;74.25
40650;BME280;26342;42.826;23.992;2023-04-28T06:19:29;95760.91;;;8.90;72.48
40650;BME280;26342;42.826;23.992;2023-04-28T06:21:54;95746.31;;;8.93;63.62
40650;BME280;26342;42.826;23.992;2023-04-28T06:24:20;95768.25;;;9.12;62.05
40650;BME280;26342;42.826;23.992;2023-04-28T06:26:45;95768.19;;;9.23;63.61
40650;BME280;26342;42.826;23.992;2023-04-28T06:29:11;95761.28;;;9.39;64.19
40650;BME280;26342;42.826;23.992;2023-04-28T06:31:36;95756.00;;;9.73;62.50
40650;BME280;26342;42.826;23.992;2023-04-28T06:34:01;95755.09;;;9.84;58.69
40650;BME280;26342;42.826;23.992;2023-04-28T06:36:29;95748.72;;;9.85;55.93
40650;BME280;26342;42.826;23.992;2023-04-28T06:38:55;95749.47;;;9.97;56.41
40650;BME280;26342;42.826;23.992;2023-04-28T06:41:21;95745.47;;;10.17;53.53
40650;BME280;26342;42.826;23.992;2023-04-28T06:43:47;95745.16;;;10.30;55.30
40650;BME280;26342;42.826;23.992;2023-04-28T06:46:12;95752.41;;;10.34;55.92
40650;BME280;26342;42.826;23.992;2023-04-28T06:48:37;95749.72;;;10.51;54.62
40650;BME280;26342;42.826;23.992;2023-04-28T06:51:03;95751.84;;;10.71;52.76
40650;BME280;26342;42.826;23.992;2023-04-28T06:53:29;95750.50;;;10.90;54.39
40650;BME280;26342;42.826;23.992;2023-04-28T06:55:55;95756.56;;;11.08;54.35
40650;BME280;26342;42.826;23.992;2023-04-28T06:58:20;95744.97;;;11.24;54.61
40650;BME280;26342;42.826;23.992;2023-04-28T07:00:46;95742.00;;;11.48;50.90
40650;BME280;26342;42.826;23.992;2023-04-28T07:03:12;95734.66;;;11.65;51.59
40650;BME280;26342;42.826;23.992;2023-04-28T07:05:37;95731.78;;;11.71;48.59
40650;BME280;26342;42.826;23.992;2023-04-28T07:08:03;95742.50;;;11.77;45.85
40650;BME280;26342;42.826;23.992;2023-04-28T07:10:29;95746.25;;;11.75;54.08
40650;BME280;26342;42.826;23.992;2023-04-28T07:12:54;95741.19;;;12.06;47.93
40650;BME280;26342;42.826;23.992;2023-04-28T07:15:20;95734.59;;;12.19;48.10
40650;BME280;26342;42.826;23.992;2023-04-28T07:17:45;95744.09;;;12.42;49.13
40650;BME280;26342;42.826;23.992;2023-04-28T07:20:13;95751.16;;;12.58;48.94
40650;BME280;26342;42.826;23.992;2023-04-28T07:22:39;95747.13;;;12.61;45.36
40650;BME280;26342;42.826;23.992;2023-04-28T07:25:04;95735.47;;;12.87;46.14
40650;BME280;26342;42.826;23.992;2023-04-28T07:27:30;95736.09;;;13.09;45.57
40650;BME280;26342;42.826;23.992;2023-04-28T07:29:56;95734.31;;;13.30;45.02
40650;BME280;26342;42.826;23.992;2023-04-28T07:32:24;95734.75;;;13.07;43.29
40650;BME280;26342;42.826;23.992;2023-04-28T07:34:49;95737.94;;;12.99;42.84
40650;BME280;26342;42.826;23.992;2023-04-28T07:37:15;95740.66;;;13.14;42.08
40650;BME280;26342;42.826;23.992;2023-04-28T07:39:40;95741.47;;;13.14;49.97
40650;BME280;26342;42.826;23.992;2023-04-28T07:42:06;95738.84;;;13.35;45.65
40650;BME280;26342;42.826;23.992;2023-04-28T07:44:33;95737.28;;;13.64;44.96
40650;BME280;26342;42.826;23.992;2023-04-28T07:46:59;95725.50;;;13.81;43.98
40650;BME280;26342;42.826;23.992;2023-04-28T07:49:29;95726.59;;;13.85;39.41
40650;BME280;26342;42.826;23.992;2023-04-28T07:51:54;95722.53;;;13.82;43.00
40650;BME280;26342;42.826;23.992;2023-04-28T07:54:20;95720.97;;;13.76;40.88
40650;BME280;26342;42.826;23.992;2023-04-28T07:57:15;95720.16;;;14.01;44.79
40650;BME280;26342;42.826;23.992;2023-04-28T07:59:40;95735.41;;;14.21;44.06
40650;BME280;26342;42.826;23.992;2023-04-28T08:02:14;95725.47;;;14.32;40.93
40650;BME280;26342;42.826;23.992;2023-04-28T08:04:40;95734.78;;;14.75;44.87
40650;BME280;26342;42.826;23.992;2023-04-28T08:07:05;95718.06;;;14.93;44.70
40650;BME280;26342;42.826;23.992;2023-04-28T08:09:31;95720.66;;;15.14;46.44
40650;BME280;26342;42.826;23.992;2023-04-28T08:11:56;95714.00;;;15.50;43.82
40650;BME280;26342;42.826;23.992;2023-04-28T08:14:23;95716.31;;;15.72;42.59
40650;BME280;26342;42.826;23.992;2023-04-28T08:19:59;95717.25;;;15.86;42.68
40650;BME280;26342;42.826;23.992;2023-04-28T08:22:25;95711.19;;;16.05;45.96
40650;BME280;26342;42.826;23.992;2023-04-28T08:24:50;95706.97;;;15.94;38.68
40650;BME280;26342;42.826;23.992;2023-04-28T08:27:16;95717.78;;;16.17;38.93
40650;BME280;26342;42.826;23.992;2023-04-28T08:29:42;95713.56;;;15.77;38.01
40650;BME280;26342;42.826;23.992;2023-04-28T08:32:07;95710.78;;;15.87;38.80
40650;BME280;26342;42.826;23.992;2023-04-28T08:34:33;95714.63;;;15.76;41.57
40650;BME280;26342;42.826;23.992;2023-04-28T08:36:59;95706.34;;;16.02;39.35
40650;BME280;26342;42.826;23.992;2023-04-28T08:39:26;95698.31;;;16.26;40.47
40650;BME280;26342;42.826;23.992;2023-04-28T08:41:52;95702.53;;;16.08;38.60
40650;BME280;26342;42.826;23.992;2023-04-28T08:44:20;95705.44;;;15.82;37.99
40650;BME280;26342;42.826;23.992;2023-04-28T08:46:48;95698.16;;;15.88;39.57
40650;BME280;26342;42.826;23.992;2023-04-28T08:49:30;95688.03;;;15.75;39.27
40650;BME280;26342;42.826;23.992;2023-04-28T08:51:58;95692.16;;;15.57;40.47
40650;BME280;26342;42.826;23.992;2023-04-28T08:54:29;95677.53;;;15.34;39.52
40650;BME280;26342;42.826;23.992;2023-04-28T08:56:57;95697.53;;;15.13;39.10
40650;BME280;26342;42.826;23.992;2023-04-28T08:59:29;95698.44;;;15.42;41.99
40650;BME280;26342;42.826;23.992;2023-04-28T09:02:03;95691.19;;;15.82;41.32
40650;BME280;26342;42.826;23.992;2023-04-28T09:04:29;95673.72;;;16.08;39.59
40650;BME280;26342;42.826;23.992;2023-04-28T09:06:55;95683.50;;;16.28;40.84
40650;BME280;26342;42.826;23.992;2023-04-28T09:09:28;95684.38;;;16.47;37.46
40650;BME280;26342;42.826;23.992;2023-04-28T09:12:01;95675.97;;;16.25;37.83
40650;BME280;26342;42.826;23.992;2023-04-28T09:14:32;95677.22;;;16.62;41.93
40650;BME280;26342;42.826;23.992;2023-04-28T09:16:58;95671.13;;;15.98;36.75
40650;BME280;26342;42.826;23.992;2023-04-28T09:19:32;95687.59;;;15.57;38.66
40650;BME280;26342;42.826;23.992;2023-04-28T09:21:58;95679.50;;;15.97;39.12
40650;BME280;26342;42.826;23.992;2023-04-28T09:26:54;95676.06;;;16.44;39.61
40650;BME280;26342;42.826;23.992;2023-04-28T09:29:33;95677.88;;;16.48;36.86
40650;BME280;26342;42.826;23.992;2023-04-28T09:32:21;95670.00;;;16.81;36.49
40650;BME280;26342;42.826;23.992;2023-04-28T09:34:47;95671.16;;;16.51;35.78
40650;BME280;26342;42.826;23.992;2023-04-28T09:37:17;95670.50;;;15.77;38.62
40650;BME280;26342;42.826;23.992;2023-04-28T09:39:48;95668.16;;;16.00;40.66
40650;BME280;26342;42.826;23.992;2023-04-28T09:42:40;95669.09;;;15.85;36.43
40650;BME280;26342;42.826;23.992;2023-04-28T09:45:07;95671.47;;;15.52;36.79
40650;BME280;26342;42.826;23.992;2023-04-28T09:47:36;95662.88;;;15.11;35.77
40650;BME280;26342;42.826;23.992;2023-04-28T09:50:07;95661.31;;;15.83;38.83
40650;BME280;26342;42.826;23.992;2023-04-28T09:52:40;95655.19;;;16.31;37.57
40650;BME280;26342;42.826;23.992;2023-04-28T09:55:06;95661.53;;;16.16;36.69
40650;BME280;26342;42.826;23.992;2023-04-28T09:57:40;95655.16;;;16.07;34.98
40650;BME280;26342;42.826;23.992;2023-04-28T10:00:11;95648.19;;;16.06;36.06
40650;BME280;26342;42.826;23.992;2023-04-28T10:02:42;95641.38;;;15.84;39.99
40650;BME280;26342;42.826;23.992;2023-04-28T10:05:08;95649.06;;;15.67;38.78
40650;BME280;26342;42.826;23.992;2023-04-28T10:07:34;95642.19;;;15.51;39.16
40650;BME280;26342;42.826;23.992;2023-04-28T10:10:00;95651.25;;;15.21;39.80
40650;BME280;26342;42.826;23.992;2023-04-28T10:12:26;95639.53;;;15.46;40.03
40650;BME280;26342;42.826;23.992;2023-04-28T10:14:52;95637.72;;;15.36;38.71
40650;BME280;26342;42.826;23.992;2023-04-28T10:17:21;95643.31;;;15.40;39.24
40650;BME280;26342;42.826;23.992;2023-04-28T10:19:52;95632.06;;;15.72;40.74
40650;BME280;26342;42.826;23.992;2023-04-28T10:25:31;95640.75;;;16.22;39.66
40650;BME280;26342;42.826;23.992;2023-04-28T10:28:03;95637.09;;;16.36;36.82
40650;BME280;26342;42.826;23.992;2023-04-28T10:30:29;95629.75;;;16.42;38.12
40650;BME280;26342;42.826;23.992;2023-04-28T10:38:07;95630.81;;;16.70;36.00
40650;BME280;26342;42.826;23.992;2023-04-28T10:42:59;95629.81;;;16.37;37.02
40650;BME280;26342;42.826;23.992;2023-04-28T10:48:12;95627.22;;;16.74;34.59
40650;BME280;26342;42.826;23.992;2023-04-28T10:56:19;95614.56;;;16.75;35.79
40650;BME280;26342;42.826;23.992;2023-04-28T10:58:50;95606.31;;;16.42;33.93
40650;BME280;26342;42.826;23.992;2023-04-28T11:06:36;95603.06;;;16.45;34.89
40650;BME280;26342;42.826;23.992;2023-04-28T11:19:17;95593.09;;;17.08;32.95
40650;BME280;26342;42.826;23.992;2023-04-28T11:21:44;95576.47;;;17.00;33.03
40650;BME280;26342;42.826;23.992;2023-04-28T11:24:11;95584.22;;;17.07;34.65
40650;BME280;26342;42.826;23.992;2023-04-28T11:26:37;95575.22;;;17.30;34.41
40650;BME280;26342;42.826;23.992;2023-04-28T11:29:03;95580.69;;;17.25;32.58
40650;BME280;26342;42.826;23.992;2023-04-28T11:31:29;95572.03;;;17.10;32.58
40650;BME280;26342;42.826;23.992;2023-04-28T11:34:10;95577.81;;;16.84;33.08
40650;BME280;26342;42.826;23.992;2023-04-28T11:36:39;95578.44;;;16.95;38.90
40650;BME280;26342;42.826;23.992;2023-04-28T11:39:08;95576.56;;;17.14;32.92
40650;BME280;26342;42.826;23.992;2023-04-28T11:41:38;95567.63;;;17.33;33.75
40650;BME280;26342;42.826;23.992;2023-04-28T11:44:17;95561.75;;;17.44;32.92
40650;BME280;26342;42.826;23.992;2023-04-28T11:46:47;95566.53;;;17.34;31.80
40650;BME280;26342;42.826;23.992;2023-04-28T11:49:19;95557.25;;;17.07;33.38
40650;BME280;26342;42.826;23.992;2023-04-28T11:51:45;95562.72;;;16.83;34.68
40650;BME280;26342;42.826;23.992;2023-04-28T11:54:19;95560.09;;;16.78;32.87
40650;BME280;26342;42.826;23.992;2023-04-28T11:56:45;95569.00;;;16.55;33.69
40650;BME280;26342;42.826;23.992;2023-04-28T11:59:11;95565.34;;;16.64;33.97
40650;BME280;26342;42.826;23.992;2023-04-28T12:01:59;95563.53;;;16.84;33.43
40650;BME280;26342;42.826;23.992;2023-04-28T12:04:31;95558.13;;;16.84;33.53
40650;BME280;26342;42.826;23.992;2023-04-28T12:07:07;95554.09;;;16.81;32.37
40650;BME280;26342;42.826;23.992;2023-04-28T12:09:43;95550.56;;;16.86;32.18
40650;BME280;26342;42.826;23.992;2023-04-28T12:14:56;95546.91;;;16.77;33.71
40650;BME280;26342;42.826;23.992;2023-04-28T12:19:48;95545.50;;;16.98;32.97
40650;BME280;26342;42.826;23.992;2023-04-28T12:22:14;95548.50;;;16.96;32.65
40650;BME280;26342;42.826;23.992;2023-04-28T12:24:43;95543.84;;;16.83;32.17
40650;BME280;26342;42.826;23.992;2023-04-28T12:27:22;95546.66;;;16.54;34.16
40650;BME280;26342;42.826;23.992;2023-04-28T12:29:49;95536.66;;;16.55;33.19
40650;BME280;26342;42.826;23.992;2023-04-28T12:32:15;95519.34;;;16.61;32.51
40650;BME280;26342;42.826;23.992;2023-04-28T12:34:43;95524.16;;;16.64;32.58
40650;BME280;26342;42.826;23.992;2023-04-28T12:37:08;95521.63;;;16.72;35.96
40650;BME280;26342;42.826;23.992;2023-04-28T12:39:35;95518.19;;;16.67;32.82
40650;BME280;26342;42.826;23.992;2023-04-28T12:42:02;95516.13;;;16.59;33.22
40650;BME280;26342;42.826;23.992;2023-04-28T12:44:32;95517.28;;;16.34;34.21
40650;BME280;26342;42.826;23.992;2023-04-28T12:47:01;95515.81;;;16.41;33.56
40650;BME280;26342;42.826;23.992;2023-04-28T12:49:27;95527.41;;;16.42;33.36
40650;BME280;26342;42.826;23.992;2023-04-28T12:51:52;95521.66;;;16.30;32.17
40650;BME280;26342;42.826;23.992;2023-04-28T12:54:18;95519.97;;;16.34;33.78
40650;BME280;26342;42.826;23.992;2023-04-28T12:56:43;95519.97;;;16.34;34.32
40650;BME280;26342;42.826;23.992;2023-04-28T12:59:09;95513.22;;;16.36;33.77
40650;BME280;26342;42.826;23.992;2023-04-28T13:01:35;95500.84;;;16.35;34.23
40650;BME280;26342;42.826;23.992;2023-04-28T13:04:01;95510.06;;;16.29;34.99
40650;BME280;26342;42.826;23.992;2023-04-28T13:06:27;95506.78;;;16.32;35.29
40650;BME280;26342;42.826;23.992;2023-04-28T13:08:53;95498.50;;;16.29;35.24
40650;BME280;26342;42.826;23.992;2023-04-28T13:11:18;95510.47;;;16.17;33.65
40650;BME280;26342;42.826;23.992;2023-04-28T13:13:44;95511.25;;;15.99;33.82
40650;BME280;26342;42.826;23.992;2023-04-28T13:16:10;95514.41;;;15.82;34.55
40650;BME280;26342;42.826;23.992;2023-04-28T13:18:35;95521.25;;;15.70;34.98
40650;BME280;26342;42.826;23.992;2023-04-28T13:21:01;95516.97;;;15.69;35.31
40650;BME280;26342;42.826;23.992;2023-04-28T13:23:26;95508.22;;;15.53;35.22
40650;BME280;26342;42.826;23.992;2023-04-28T13:25:51;95499.31;;;15.57;36.03
40650;BME280;26342;42.826;23.992;2023-04-28T13:28:17;95503.16;;;15.46;35.78
40650;BME280;26342;42.826;23.992;2023-04-28T13:30:42;95501.91;;;15.39;36.33
40650;BME280;26342;42.826;23.992;2023-04-28T13:33:07;95499.03;;;15.30;36.11
40650;BME280;26342;42.826;23.992;2023-04-28T13:35:33;95500.53;;;15.12;37.31
40650;BME280;26342;42.826;23.992;2023-04-28T13:37:58;95496.78;;;15.08;38.19